createdAt,value
2023-02-07T00:00:55.049Z,-6.30
2023-02-07T00:03:27.040Z,-6.04
2023-02-07T00:06:09.532Z,-6.10
2023-02-07T00:08:42.454Z,-6.17
2023-02-07T00:11:17.393Z,-5.96
2023-02-07T00:13:53.442Z,-5.71
2023-02-07T00:16:26.491Z,-5.70
2023-02-07T00:19:00.245Z,-5.67
2023-02-07T00:21:32.531Z,-5.71
2023-02-07T00:24:04.816Z,-5.69
2023-02-07T00:26:36.833Z,-5.54
2023-02-07T00:29:08.801Z,-6.05
2023-02-07T00:31:41.086Z,-5.55
2023-02-07T00:34:13.485Z,-5.37
2023-02-07T00:36:45.461Z,-5.58
2023-02-07T00:39:18.329Z,-5.40
2023-02-07T00:41:50.854Z,-5.50
2023-02-07T00:44:22.857Z,-5.49
2023-02-07T00:46:54.844Z,-5.53
2023-02-07T00:49:27.437Z,-5.23
2023-02-07T00:51:59.365Z,-5.43
2023-02-07T00:54:31.368Z,-5.22
2023-02-07T00:57:03.350Z,-5.09
2023-02-07T00:59:35.340Z,-4.98
2023-02-07T01:02:07.282Z,-5.09
2023-02-07T01:04:39.340Z,-4.97
2023-02-07T01:07:11.516Z,-4.98
2023-02-07T01:09:43.792Z,-5.27
2023-02-07T01:12:15.745Z,-5.29
2023-02-07T01:14:47.745Z,-4.90
2023-02-07T01:17:19.789Z,-4.98
2023-02-07T01:19:56.160Z,-4.94
2023-02-07T01:22:29.742Z,-4.94
2023-02-07T01:25:01.739Z,-5.12
2023-02-07T01:27:34.884Z,-4.86
2023-02-07T01:30:07.245Z,-4.96
2023-02-07T01:32:39.510Z,-4.91
2023-02-07T01:35:11.571Z,-4.93
2023-02-07T01:37:43.529Z,-4.99
2023-02-07T01:40:15.720Z,-5.02
2023-02-07T01:42:47.682Z,-4.90
2023-02-07T01:45:39.534Z,-4.82
2023-02-07T01:48:17.383Z,-4.97
2023-02-07T01:50:51.989Z,-4.90
2023-02-07T01:53:26.639Z,-4.73
2023-02-07T01:56:03.044Z,-4.72
2023-02-07T01:58:36.745Z,-5.29
2023-02-07T02:01:17.231Z,-4.75
2023-02-07T02:03:51.042Z,-4.90
2023-02-07T02:06:26.223Z,-4.67
2023-02-07T02:09:00.465Z,-4.82
2023-02-07T02:12:12.439Z,-4.62
2023-02-07T02:15:26.571Z,-4.60
2023-02-07T02:18:10.575Z,-4.75
2023-02-07T02:21:13.095Z,-4.70
2023-02-07T02:24:10.528Z,-4.69
2023-02-07T02:26:56.250Z,-4.69
2023-02-07T02:29:59.009Z,-4.63
2023-02-07T02:32:52.311Z,-4.52
2023-02-07T02:35:52.430Z,-4.62
2023-02-07T02:38:39.766Z,-4.44
2023-02-07T02:41:16.048Z,-4.57
2023-02-07T02:43:52.278Z,-4.39
2023-02-07T02:46:39.142Z,-4.37
2023-02-07T02:49:14.619Z,-4.37
2023-02-07T02:51:50.833Z,-4.71
2023-02-07T02:54:34.760Z,-4.49
2023-02-07T02:57:44.346Z,-4.25
2023-02-07T03:00:50.446Z,-4.25
2023-02-07T03:04:07.078Z,-4.27
2023-02-07T03:06:49.631Z,-4.26
2023-02-07T03:09:44.400Z,-4.32
2023-02-07T03:12:25.067Z,-4.34
2023-02-07T03:15:04.083Z,-4.19
2023-02-07T03:17:58.072Z,-4.26
2023-02-07T03:20:34.930Z,-4.25
2023-02-07T03:23:09.462Z,-4.22
2023-02-07T03:25:42.960Z,-4.33
2023-02-07T03:28:17.403Z,-4.33
2023-02-07T03:30:52.228Z,-4.23
2023-02-07T03:33:25.869Z,-4.13
2023-02-07T03:36:17.001Z,-4.00
2023-02-07T03:38:49.007Z,-3.94
2023-02-07T03:41:44.759Z,-4.13
2023-02-07T03:44:21.600Z,-4.12
2023-02-07T03:46:55.094Z,-4.12
2023-02-07T03:49:27.320Z,-4.31
2023-02-07T03:52:00.782Z,-4.48
2023-02-07T03:54:32.932Z,-4.07
2023-02-07T03:57:05.504Z,-3.97
2023-02-07T03:59:37.541Z,-4.05
2023-02-07T04:02:09.625Z,-3.97
2023-02-07T04:04:41.960Z,-3.85
2023-02-07T04:07:14.024Z,-4.02
2023-02-07T04:09:45.929Z,-3.90
2023-02-07T04:12:17.899Z,-3.92
2023-02-07T04:14:49.875Z,-4.01
2023-02-07T04:17:21.797Z,-3.86
2023-02-07T04:19:53.878Z,-3.82
2023-02-07T04:22:25.947Z,-3.93
2023-02-07T04:24:58.233Z,-4.10
2023-02-07T04:27:30.204Z,-4.01
2023-02-07T04:30:02.299Z,-4.10
2023-02-07T04:32:34.291Z,-4.02
2023-02-07T04:35:06.510Z,-4.36
2023-02-07T04:37:38.467Z,-4.21
2023-02-07T04:40:11.033Z,-3.97
2023-02-07T04:42:42.981Z,-4.16
2023-02-07T04:45:15.251Z,-3.82
2023-02-07T04:47:48.513Z,-4.06
2023-02-07T04:50:20.462Z,-4.13
2023-02-07T04:52:52.471Z,-3.97
2023-02-07T04:55:24.637Z,-4.13
2023-02-07T04:57:56.610Z,-3.96
2023-02-07T05:00:28.811Z,-4.27
2023-02-07T05:03:01.543Z,-3.80
2023-02-07T05:05:33.672Z,-3.82
2023-02-07T05:08:05.654Z,-4.10
2023-02-07T05:10:38.611Z,-3.87
2023-02-07T05:13:10.740Z,-3.84
2023-02-07T05:15:43.457Z,-3.66
2023-02-07T05:18:15.764Z,-3.63
2023-02-07T05:20:48.054Z,-3.61
2023-02-07T05:23:20.051Z,-3.79
2023-02-07T05:25:51.987Z,-3.98
2023-02-07T05:28:24.213Z,-4.22
2023-02-07T05:30:57.225Z,-3.85
2023-02-07T05:33:29.270Z,-3.93
2023-02-07T05:36:05.453Z,-3.73
2023-02-07T05:38:37.430Z,-4.01
2023-02-07T05:41:09.390Z,-4.06
2023-02-07T05:43:41.385Z,-3.83
2023-02-07T05:46:13.349Z,-3.81
2023-02-07T05:48:45.362Z,-3.76
2023-02-07T05:51:17.452Z,-3.80
2023-02-07T05:53:49.531Z,-3.65
2023-02-07T05:56:22.276Z,-3.51
2023-02-07T05:58:54.950Z,-3.54
2023-02-07T06:01:26.916Z,-3.52
2023-02-07T06:04:01.611Z,-3.50
2023-02-07T06:06:33.937Z,-3.56
2023-02-07T06:09:06.027Z,-3.55
2023-02-07T06:11:37.996Z,-3.48
2023-02-07T06:14:10.004Z,-3.52
2023-02-07T06:16:42.242Z,-3.30
2023-02-07T06:19:15.338Z,-3.73
2023-02-07T06:21:47.296Z,-3.36
2023-02-07T06:24:19.464Z,-3.69
2023-02-07T06:26:51.552Z,-3.60
2023-02-07T06:29:23.522Z,-3.27
2023-02-07T06:31:55.514Z,-3.23
2023-02-07T06:34:27.672Z,-3.34
2023-02-07T06:36:59.600Z,-3.21
2023-02-07T06:39:33.161Z,-3.16
2023-02-07T06:42:09.443Z,-3.43
2023-02-07T06:44:41.531Z,-2.99
2023-02-07T06:47:13.623Z,-3.30
2023-02-07T06:49:45.465Z,-3.14
2023-02-07T06:52:17.685Z,-2.89
2023-02-07T06:54:49.644Z,-3.43
2023-02-07T06:57:21.595Z,-2.86
2023-02-07T06:59:53.751Z,-2.57
2023-02-07T07:02:25.769Z,-2.86
2023-02-07T07:04:58.731Z,-2.37
2023-02-07T07:07:30.628Z,-2.48
2023-02-07T07:10:02.624Z,-2.39
2023-02-07T07:12:34.834Z,-2.27
2023-02-07T07:15:07.490Z,-2.37
2023-02-07T07:17:39.474Z,-2.70
2023-02-07T07:20:11.905Z,-2.28
2023-02-07T07:22:44.108Z,-2.07
2023-02-07T07:25:16.109Z,-2.20
2023-02-07T07:27:48.376Z,-2.18
2023-02-07T07:30:20.805Z,-2.32
2023-02-07T07:32:52.776Z,-2.02
2023-02-07T07:35:24.721Z,-2.28
2023-02-07T07:37:57.395Z,-2.44
2023-02-07T07:40:30.158Z,-1.81
2023-02-07T07:43:02.344Z,-1.87
2023-02-07T07:45:37.587Z,-1.62
2023-02-07T07:48:09.624Z,-2.29
2023-02-07T07:50:42.047Z,-1.83
2023-02-07T07:53:15.097Z,-2.01
2023-02-07T07:55:56.300Z,-2.01
2023-02-07T07:58:29.261Z,-1.60
2023-02-07T08:01:01.298Z,-1.82
2023-02-07T08:03:33.328Z,-1.57
2023-02-07T08:06:05.770Z,-1.79
2023-02-07T08:08:37.946Z,-1.53
2023-02-07T08:11:10.619Z,-1.57
2023-02-07T08:13:42.716Z,-1.51
2023-02-07T08:16:15.427Z,-1.43
2023-02-07T08:18:47.436Z,-1.27
2023-02-07T08:21:19.707Z,-1.29
2023-02-07T08:23:51.777Z,-1.30
2023-02-07T08:26:23.731Z,-1.66
2023-02-07T08:28:55.696Z,-1.51
2023-02-07T08:31:27.712Z,-1.48
2023-02-07T08:33:59.708Z,-1.57
2023-02-07T08:36:31.682Z,-1.28
2023-02-07T08:39:06.365Z,-1.65
2023-02-07T08:41:38.572Z,-1.64
2023-02-07T08:44:10.989Z,-1.79
2023-02-07T08:46:43.281Z,-1.80
2023-02-07T08:49:15.262Z,-1.71
2023-02-07T08:51:47.449Z,-1.33
2023-02-07T08:54:20.091Z,-1.29
2023-02-07T08:56:52.065Z,-1.80
2023-02-07T08:59:24.210Z,-1.61
2023-02-07T09:01:56.244Z,-1.34
2023-02-07T09:04:28.455Z,-1.55
2023-02-07T09:07:00.454Z,-1.65
2023-02-07T09:09:33.443Z,-1.77
2023-02-07T09:12:05.636Z,-1.67
2023-02-07T09:14:39.611Z,-1.53
2023-02-07T09:17:13.048Z,-1.72
2023-02-07T09:19:45.013Z,-1.40
2023-02-07T09:22:17.427Z,-1.32
2023-02-07T09:24:49.585Z,-1.53
2023-02-07T09:27:21.612Z,-1.92
2023-02-07T09:29:53.536Z,-1.42
2023-02-07T09:32:26.004Z,-1.32
2023-02-07T09:34:58.727Z,-1.52
2023-02-07T09:37:34.864Z,-1.32
2023-02-07T09:40:19.602Z,-1.28
2023-02-07T09:42:58.827Z,-1.45
2023-02-07T09:45:37.985Z,-1.34
2023-02-07T09:48:45.892Z,-1.53
2023-02-07T09:51:21.285Z,-1.18
2023-02-07T09:54:00.618Z,-1.17
2023-02-07T09:56:35.465Z,-1.05
2023-02-07T09:59:31.001Z,-0.98
2023-02-07T10:02:15.282Z,-0.90
2023-02-07T10:04:50.699Z,-0.83
2023-02-07T10:07:22.895Z,-1.00
2023-02-07T10:09:54.845Z,-0.86
2023-02-07T10:12:33.487Z,-0.89
2023-02-07T10:15:10.450Z,-0.88
2023-02-07T10:18:05.392Z,-0.79
2023-02-07T10:20:41.563Z,-1.05
2023-02-07T10:23:32.618Z,-1.05
2023-02-07T10:26:17.350Z,-0.67
2023-02-07T10:29:26.456Z,-0.81
2023-02-07T10:32:03.996Z,-0.91
2023-02-07T10:34:40.333Z,-0.61
2023-02-07T10:37:20.153Z,-0.72
2023-02-07T10:40:07.032Z,-0.52
2023-02-07T10:42:40.639Z,-0.63
2023-02-07T10:45:14.959Z,-0.35
2023-02-07T10:47:46.984Z,-0.57
2023-02-07T10:50:29.780Z,-0.80
2023-02-07T10:53:02.167Z,-0.84
2023-02-07T10:55:45.145Z,-0.77
2023-02-07T10:58:23.913Z,-0.73
2023-02-07T11:00:57.315Z,-0.70
2023-02-07T11:03:31.335Z,-1.30
2023-02-07T11:06:08.292Z,-0.73
2023-02-07T11:08:41.523Z,-0.69
2023-02-07T11:11:33.550Z,-0.81
2023-02-07T11:14:07.609Z,-0.61
2023-02-07T11:16:47.356Z,-0.77
2023-02-07T11:19:23.496Z,-0.90
2023-02-07T11:22:19.907Z,-0.69
2023-02-07T11:25:01.266Z,-0.37
2023-02-07T11:27:40.505Z,-0.62
2023-02-07T11:30:17.785Z,-0.52
2023-02-07T11:33:02.342Z,-0.38
2023-02-07T11:35:34.221Z,-0.30
2023-02-07T11:38:16.111Z,-0.70
2023-02-07T11:40:49.063Z,-0.32
2023-02-07T11:43:26.144Z,-0.69
2023-02-07T11:46:03.972Z,-0.56
2023-02-07T11:48:38.865Z,-0.33
2023-02-07T11:51:17.645Z,-0.51
2023-02-07T11:54:11.916Z,-0.67
2023-02-07T11:56:49.044Z,-0.75
2023-02-07T11:59:24.426Z,-0.54
2023-02-07T12:02:26.913Z,-0.32
2023-02-07T12:05:30.420Z,-0.72
2023-02-07T12:08:15.673Z,-0.63
2023-02-07T12:10:51.827Z,-0.87
2023-02-07T12:13:32.889Z,-0.45
2023-02-07T12:16:11.825Z,-0.43
2023-02-07T12:19:11.743Z,-0.45
2023-02-07T12:21:55.065Z,-0.23
2023-02-07T12:24:33.393Z,-0.04
2023-02-07T12:27:18.559Z,-0.29
2023-02-07T12:30:14.429Z,-0.28
2023-02-07T12:32:49.558Z,-0.23
2023-02-07T12:35:27.258Z,-0.10
2023-02-07T12:38:21.974Z,-0.20
2023-02-07T12:40:59.761Z,-0.51
2023-02-07T12:43:36.224Z,-0.69
2023-02-07T12:46:21.964Z,-0.51
2023-02-07T12:49:24.393Z,-0.29
2023-02-07T12:52:21.215Z,-0.36
2023-02-07T12:55:02.078Z,-0.25
2023-02-07T12:57:49.311Z,-0.27
2023-02-07T13:00:31.470Z,-0.18
2023-02-07T13:03:11.399Z,-0.38
2023-02-07T13:05:58.355Z,-0.50
2023-02-07T13:08:48.572Z,-0.40
2023-02-07T13:11:26.876Z,-0.17
2023-02-07T13:14:11.794Z,-0.56
2023-02-07T13:16:53.204Z,-0.26
2023-02-07T13:19:31.198Z,-0.39
2023-02-07T13:22:12.304Z,-0.50
2023-02-07T13:24:47.842Z,-0.58
2023-02-07T13:27:22.159Z,-0.38
2023-02-07T13:29:54.433Z,-0.08
2023-02-07T13:32:28.208Z,-0.29
2023-02-07T13:35:08.163Z,-0.28
2023-02-07T13:38:18.042Z,-0.12
2023-02-07T13:41:04.806Z,-0.36
2023-02-07T13:44:09.384Z,-0.48
2023-02-07T13:46:56.896Z,-0.20
2023-02-07T13:49:54.668Z,-0.31
2023-02-07T13:52:45.063Z,-0.42
2023-02-07T13:55:20.051Z,-0.17
2023-02-07T13:58:11.489Z,-0.37
2023-02-07T14:00:56.395Z,-0.25
2023-02-07T14:03:32.180Z,-0.36
2023-02-07T14:06:23.989Z,-0.26
2023-02-07T14:09:16.745Z,-0.24
2023-02-07T14:12:02.211Z,-0.27
2023-02-07T14:14:37.899Z,-0.19
2023-02-07T14:17:35.298Z,-0.31
2023-02-07T14:20:33.163Z,-0.25
2023-02-07T14:23:20.072Z,-0.15
2023-02-07T14:25:52.189Z,-0.42
2023-02-07T14:28:36.687Z,-0.76
2023-02-07T14:31:21.196Z,-0.58
2023-02-07T14:34:15.171Z,-0.74
2023-02-07T14:36:48.566Z,-0.67
2023-02-07T14:39:20.510Z,-0.34
2023-02-07T14:41:53.148Z,-0.53
2023-02-07T14:44:35.299Z,-0.50
2023-02-07T14:47:09.762Z,-0.53
2023-02-07T14:49:48.178Z,-0.60
2023-02-07T14:52:32.999Z,-0.75
2023-02-07T14:55:22.696Z,-0.89
2023-02-07T14:58:07.775Z,-0.70
2023-02-07T15:00:49.156Z,-0.69
2023-02-07T15:03:21.694Z,-0.88
2023-02-07T15:05:53.679Z,-0.59
2023-02-07T15:08:28.214Z,-0.60
2023-02-07T15:11:02.723Z,-0.58
2023-02-07T15:13:41.926Z,-0.58
2023-02-07T15:16:48.866Z,-0.58
2023-02-07T15:19:35.018Z,-0.67
2023-02-07T15:22:20.425Z,-0.80
2023-02-07T15:24:59.085Z,-0.68
2023-02-07T15:27:31.067Z,-0.75
2023-02-07T15:30:07.488Z,-0.62
2023-02-07T15:32:46.486Z,-0.61
2023-02-07T15:35:31.210Z,-0.66
2023-02-07T15:38:28.055Z,-0.59
2023-02-07T15:41:00.421Z,-0.65
2023-02-07T15:43:35.310Z,-0.77
2023-02-07T15:46:10.475Z,-0.80
2023-02-07T15:48:51.848Z,-0.78
2023-02-07T15:51:29.363Z,-0.79
2023-02-07T15:54:02.145Z,-0.82
2023-02-07T15:56:34.385Z,-0.63
2023-02-07T15:59:11.617Z,-0.98
2023-02-07T16:01:44.078Z,-0.80
2023-02-07T16:04:16.112Z,-0.68
2023-02-07T16:06:58.910Z,-0.80
2023-02-07T16:09:42.332Z,-0.63
2023-02-07T16:12:33.181Z,-0.69
2023-02-07T16:15:21.990Z,-0.79
2023-02-07T16:17:54.994Z,-0.78
2023-02-07T16:20:28.893Z,-0.71
2023-02-07T16:23:04.574Z,-0.95
2023-02-07T16:25:37.274Z,-1.10
2023-02-07T16:28:14.864Z,-0.91
2023-02-07T16:30:46.864Z,-1.04
2023-02-07T16:33:18.883Z,-1.42
2023-02-07T16:35:50.841Z,-1.26
2023-02-07T16:38:22.767Z,-0.89
2023-02-07T16:40:54.925Z,-1.30
2023-02-07T16:43:35.361Z,-1.32
2023-02-07T16:46:07.454Z,-1.15
2023-02-07T16:48:39.520Z,-1.37
2023-02-07T16:51:11.477Z,-1.08
2023-02-07T16:53:43.730Z,-0.95
2023-02-07T16:56:26.031Z,-1.23
2023-02-07T16:58:58.182Z,-1.01
2023-02-07T17:01:30.905Z,-0.96
2023-02-07T17:04:02.812Z,-0.86
2023-02-07T17:06:35.150Z,-1.34
2023-02-07T17:09:19.070Z,-0.90
2023-02-07T17:11:52.769Z,-0.82
2023-02-07T17:14:24.742Z,-0.88
2023-02-07T17:16:56.746Z,-0.93
2023-02-07T17:19:31.721Z,-0.86
2023-02-07T17:22:03.966Z,-0.98
2023-02-07T17:24:35.992Z,-1.05
2023-02-07T17:27:08.009Z,-1.13
2023-02-07T17:29:40.736Z,-1.34
2023-02-07T17:32:12.823Z,-1.12
2023-02-07T17:34:44.878Z,-0.91
2023-02-07T17:37:16.877Z,-1.27
2023-02-07T17:39:48.991Z,-1.15
2023-02-07T17:42:20.965Z,-1.05
2023-02-07T17:44:52.955Z,-1.16
2023-02-07T17:47:25.263Z,-0.98
2023-02-07T17:49:57.213Z,-1.21
2023-02-07T17:52:29.148Z,-1.16
2023-02-07T17:55:01.083Z,-0.98
2023-02-07T17:57:32.982Z,-1.10
2023-02-07T18:00:05.755Z,-1.05
2023-02-07T18:02:38.037Z,-1.12
2023-02-07T18:05:10.827Z,-1.37
2023-02-07T18:07:43.656Z,-0.88
2023-02-07T18:10:22.478Z,-0.91
2023-02-07T18:12:54.618Z,-0.91
2023-02-07T18:15:28.185Z,-1.03
2023-02-07T18:18:00.261Z,-1.02
2023-02-07T18:20:34.278Z,-0.86
2023-02-07T18:23:06.280Z,-1.03
2023-02-07T18:25:38.922Z,-0.91
2023-02-07T18:28:11.043Z,-1.16
2023-02-07T18:30:43.914Z,-1.03
2023-02-07T18:33:17.427Z,-1.04
2023-02-07T18:35:56.550Z,-1.25
2023-02-07T18:38:28.581Z,-1.11
2023-02-07T18:41:00.564Z,-1.19
2023-02-07T18:43:32.549Z,-0.90
2023-02-07T18:46:12.237Z,-1.06
2023-02-07T18:48:45.324Z,-1.03
2023-02-07T18:51:18.956Z,-1.07
2023-02-07T18:53:51.898Z,-1.01
2023-02-07T18:56:26.492Z,-1.02
2023-02-07T18:58:59.360Z,-1.05
2023-02-07T19:01:31.942Z,-1.09
2023-02-07T19:04:04.000Z,-1.29
2023-02-07T19:06:36.475Z,-1.08
2023-02-07T19:09:09.610Z,-1.07
2023-02-07T19:11:41.547Z,-1.04
2023-02-07T19:14:19.223Z,-1.42
2023-02-07T19:16:56.033Z,-1.09
2023-02-07T19:19:30.772Z,-1.35
2023-02-07T19:22:02.716Z,-1.34
2023-02-07T19:24:34.826Z,-1.34
2023-02-07T19:27:07.494Z,-0.99
2023-02-07T19:29:39.648Z,-1.05
2023-02-07T19:32:11.706Z,-1.06
2023-02-07T19:34:43.674Z,-1.08
2023-02-07T19:37:15.610Z,-1.21
2023-02-07T19:39:49.369Z,-1.30
2023-02-07T19:42:21.361Z,-1.40
2023-02-07T19:44:53.515Z,-1.16
2023-02-07T19:47:25.572Z,-1.12
2023-02-07T19:49:57.568Z,-1.27
2023-02-07T19:52:30.619Z,-1.27
2023-02-07T19:55:02.646Z,-1.09
2023-02-07T19:57:35.501Z,-1.32
2023-02-07T20:00:08.386Z,-1.29
2023-02-07T20:02:40.545Z,-1.16
2023-02-07T20:05:12.771Z,-1.36
2023-02-07T20:07:44.780Z,-1.38
2023-02-07T20:10:16.681Z,-1.49
2023-02-07T20:12:49.349Z,-1.25
2023-02-07T20:15:21.400Z,-1.22
2023-02-07T20:17:54.568Z,-1.62
2023-02-07T20:20:26.661Z,-1.42
2023-02-07T20:22:58.638Z,-1.41
2023-02-07T20:25:33.889Z,-1.60
2023-02-07T20:28:07.694Z,-1.45
2023-02-07T20:30:45.369Z,-1.32
2023-02-07T20:33:17.280Z,-1.74
2023-02-07T20:35:49.328Z,-1.68
2023-02-07T20:38:21.312Z,-1.34
2023-02-07T20:40:53.454Z,-1.69
2023-02-07T20:43:25.732Z,-1.42
2023-02-07T20:46:10.964Z,-1.40
2023-02-07T20:48:43.696Z,-1.53
2023-02-07T20:51:15.623Z,-1.46
2023-02-07T20:53:47.790Z,-1.28
2023-02-07T20:56:20.212Z,-1.40
2023-02-07T20:58:52.662Z,-1.16
2023-02-07T21:01:27.431Z,-1.18
2023-02-07T21:04:02.682Z,-1.27
2023-02-07T21:06:35.825Z,-1.48
2023-02-07T21:09:08.428Z,-1.24
2023-02-07T21:11:46.159Z,-1.29
2023-02-07T21:14:25.266Z,-1.07
2023-02-07T21:17:01.711Z,-1.09
2023-02-07T21:19:35.146Z,-1.21
2023-02-07T21:22:07.905Z,-1.08
2023-02-07T21:24:40.244Z,-1.20
2023-02-07T21:27:12.926Z,-1.17
2023-02-07T21:29:45.159Z,-1.10
2023-02-07T21:32:17.261Z,-0.98
2023-02-07T21:34:49.468Z,-1.05
2023-02-07T21:37:21.462Z,-1.11
2023-02-07T21:39:53.602Z,-1.06
2023-02-07T21:42:25.599Z,-0.96
2023-02-07T21:44:57.707Z,-1.26
2023-02-07T21:47:29.639Z,-1.25
2023-02-07T21:50:01.735Z,-1.16
2023-02-07T21:52:34.339Z,-1.07
2023-02-07T21:55:06.743Z,-1.26
2023-02-07T21:57:41.835Z,-1.24
2023-02-07T22:00:14.370Z,-1.15
2023-02-07T22:02:46.403Z,-1.14
2023-02-07T22:05:18.530Z,-1.33
2023-02-07T22:07:50.505Z,-1.06
2023-02-07T22:10:22.394Z,-1.26
2023-02-07T22:12:54.457Z,-1.20
2023-02-07T22:15:27.147Z,-1.13
2023-02-07T22:17:59.136Z,-1.05
2023-02-07T22:20:31.299Z,-1.20
2023-02-07T22:23:03.219Z,-1.08
2023-02-07T22:25:35.150Z,-1.02
2023-02-07T22:28:07.264Z,-0.95
2023-02-07T22:30:41.916Z,-1.04
2023-02-07T22:33:14.188Z,-0.94
2023-02-07T22:35:47.618Z,-0.92
2023-02-07T22:38:19.577Z,-1.07
2023-02-07T22:40:51.525Z,-1.17
2023-02-07T22:43:23.412Z,-1.15
2023-02-07T22:45:55.572Z,-1.24
2023-02-07T22:48:27.635Z,-1.25
2023-02-07T22:51:00.314Z,-1.19
2023-02-07T22:53:32.265Z,-1.35
2023-02-07T22:56:04.598Z,-1.71
2023-02-07T22:58:37.290Z,-1.23
2023-02-07T23:01:20.682Z,-1.14
2023-02-07T23:03:53.419Z,-1.16
2023-02-07T23:06:26.450Z,-1.20
2023-02-07T23:08:59.035Z,-1.16
2023-02-07T23:11:30.986Z,-1.34
2023-02-07T23:14:04.284Z,-1.65
2023-02-07T23:16:37.466Z,-1.43
2023-02-07T23:19:15.828Z,-1.46
2023-02-07T23:21:47.821Z,-1.42
2023-02-07T23:24:19.818Z,-1.56
2023-02-07T23:26:51.863Z,-1.51
2023-02-07T23:29:23.842Z,-1.54
2023-02-07T23:31:55.915Z,-1.60
2023-02-07T23:34:27.932Z,-1.26
2023-02-07T23:37:02.790Z,-1.38
2023-02-07T23:39:35.297Z,-1.41
2023-02-07T23:42:10.723Z,-1.25
2023-02-07T23:44:42.631Z,-1.14
2023-02-07T23:47:14.691Z,-1.14
2023-02-07T23:49:46.608Z,-1.21
2023-02-07T23:52:18.578Z,-1.30
2023-02-07T23:54:50.571Z,-1.07
2023-02-07T23:57:22.557Z,-1.20
2023-02-07T23:59:54.966Z,-1.26
